GMTTLERT

Guest
Details From GMTT - IBN BATOUTA
To LERT - Rota Ns
Flight Number -
Tags generated
Created
Modified
Stats Distance 59 nm / 109 km
Max Altitude 2,300 ft / 701 m
Waypoints 3
Social Downloads 0
Likes 0
Share VATSIM

Download

Looking for another format? Having issues loading an existing format? Contact us
Advertisement - Login to hide

Notes

Basic altitude profile: - Ascent Rate: 2500ft/min - Ascent Speed: 250kts - Cruise Altitude: 35000ft - Cruise Speed: 420kts - Descent Rate: 1500ft/min - Descent Speed: 250kts Options: - Use NATs: yes - Use PACOTS: yes - Use low airways: yes - Use high airways: no

Route

GMTT LINTO LERT

ID Type Via Altitude Latitude Longitude Leg Dist Tot Dist Heading (true) Name
O GMTT APT - 0 ft / 0 m 35.72691˚ -5.91690˚ - 0 nm - IBN BATOUTA
LINTO FIX - 2,300 ft / 701 m 35.83333˚ -5.95444˚ 6 nm 6 nm 344° / 344° -
O LERT APT - 0 ft / 0 m 36.64521˚ -6.34948˚ 52 nm 59 nm 339° / 338° Rota Ns

Altitude Profile

Advertisement - Login to hide

GMTT

Details ICAO GMTT (TNG)
Name IBN BATOUTA
Region Morocco
Timezone Africa/Casablanca (UTC+0.0)
Stats Elevation 62 ft / 19 m (AMSL)
Location 35.726911° -5.916900°
Runways 2
Magnetic Variation 1.289° W

METAR

GMTT 180930Z 08007KT 8000 FEW016 SCT100 14/05 Q1029 NOSIG

Decode

TAF

TAF GMTT 180500Z 1806/1912 09010 CAVOK

Decode

Departure Runways

ID Width Length Bearing (true) Bearing (mag) Surface Threshold Offset Overrun Length
07 98 ft / 30 m 6,555 ft / 1,998 m 69.91° 71.20° Asphalt 0 ft / 0 m 0 ft / 0 m
10 148 ft / 45 m 11,465 ft / 3,495 m 96.01° 97.30° Asphalt 0 ft / 0 m 197 ft / 60 m
25 98 ft / 30 m 6,555 ft / 1,998 m 249.92° 251.21° Asphalt 0 ft / 0 m 0 ft / 0 m
28 148 ft / 45 m 11,465 ft / 3,495 m 276.03° 277.32° Asphalt 1,640 ft / 500 m 197 ft / 60 m

LERT

Details ICAO LERT
Name Rota Ns
Region Spain
Timezone Europe/Madrid (UTC+1.0)
Stats Elevation 86 ft / 26 m (AMSL)
Location 36.645212° -6.349479°
Runways 1
Magnetic Variation 1.424° W

METAR

LERT 180900Z 03005KT 360V060 CAVOK 05/02 Q1030 NOSIG

Decode

TAF

Not found

Destination Runways

ID Width Length Bearing (true) Bearing (mag) Surface Threshold Offset Overrun Length
10 200 ft / 61 m 12,080 ft / 3,682 m 96.91° 98.33° Asphalt 0 ft / 0 m 148 ft / 45 m
28 200 ft / 61 m 12,080 ft / 3,682 m 276.93° 278.35° Asphalt 0 ft / 0 m 148 ft / 45 m

Approach Navaids

Runway Type Ident Frequency Range Bearing (true) Bearing (mag) Slope Elevation
10 Localiser IAOG 108.70 MHz 18 nm / 33 km 96.96° 98.38° - 86 ft / 26 m (AMSL)
10 Glidescope IAOG 108.70 MHz 10 nm / 19 km 96.92° 98.34° 3.00° 86 ft / 26 m (AMSL)